sensor_id;sensor_type;location;lat;lon;timestamp;pressure;altitude;pressure_sealevel;temperature;humidity
76746;BME280;65671;49.976;20.038;2023-07-16T00:01:38;97758.47;;;21.83;75.24
76746;BME280;65671;49.976;20.038;2023-07-16T00:04:03;97765.56;;;21.75;75.84
76746;BME280;65671;49.976;20.038;2023-07-16T00:06:29;97767.66;;;21.80;75.43
76746;BME280;65671;49.976;20.038;2023-07-16T00:08:54;97757.47;;;21.71;75.76
76746;BME280;65671;49.976;20.038;2023-07-16T00:11:19;97753.97;;;21.70;76.29
76746;BME280;65671;49.976;20.038;2023-07-16T00:13:45;97763.22;;;21.58;77.14
76746;BME280;65671;49.976;20.038;2023-07-16T00:16:13;97752.16;;;21.67;75.78
76746;BME280;65671;49.976;20.038;2023-07-16T00:18:40;97747.00;;;21.60;77.04
76746;BME280;65671;49.976;20.038;2023-07-16T00:21:06;97752.34;;;21.64;76.37
76746;BME280;65671;49.976;20.038;2023-07-16T00:23:31;97748.75;;;21.73;75.67
76746;BME280;65671;49.976;20.038;2023-07-16T00:25:57;97749.38;;;21.67;76.33
76746;BME280;65671;49.976;20.038;2023-07-16T00:28:22;97749.44;;;21.82;74.85
76746;BME280;65671;49.976;20.038;2023-07-16T00:30:48;97749.81;;;21.75;76.37
76746;BME280;65671;49.976;20.038;2023-07-16T00:33:13;97744.28;;;21.75;75.07
76746;BME280;65671;49.976;20.038;2023-07-16T00:35:38;97748.38;;;21.80;75.34
76746;BME280;65671;49.976;20.038;2023-07-16T00:38:04;97740.78;;;21.75;75.50
76746;BME280;65671;49.976;20.038;2023-07-16T00:40:29;97744.53;;;21.62;77.00
76746;BME280;65671;49.976;20.038;2023-07-16T00:42:55;97742.47;;;21.72;75.94
76746;BME280;65671;49.976;20.038;2023-07-16T00:45:20;97734.28;;;21.63;76.59
76746;BME280;65671;49.976;20.038;2023-07-16T00:47:46;97744.19;;;21.69;75.89
76746;BME280;65671;49.976;20.038;2023-07-16T00:50:11;97740.19;;;21.70;75.87
76746;BME280;65671;49.976;20.038;2023-07-16T00:52:38;97745.53;;;21.74;75.78
76746;BME280;65671;49.976;20.038;2023-07-16T00:55:05;97738.19;;;21.71;76.35
76746;BME280;65671;49.976;20.038;2023-07-16T00:57:32;97725.59;;;21.55;77.04
76746;BME280;65671;49.976;20.038;2023-07-16T00:59:58;97729.44;;;21.58;76.84
76746;BME280;65671;49.976;20.038;2023-07-16T01:02:23;97726.50;;;21.76;75.56
76746;BME280;65671;49.976;20.038;2023-07-16T01:04:49;97730.09;;;21.67;76.22
76746;BME280;65671;49.976;20.038;2023-07-16T01:07:15;97724.78;;;21.64;76.48
76746;BME280;65671;49.976;20.038;2023-07-16T01:09:44;97724.41;;;21.71;75.87
76746;BME280;65671;49.976;20.038;2023-07-16T01:12:10;97720.59;;;21.68;76.49
76746;BME280;65671;49.976;20.038;2023-07-16T01:14:38;97717.38;;;21.70;76.05
76746;BME280;65671;49.976;20.038;2023-07-16T01:17:05;97717.19;;;21.74;75.44
76746;BME280;65671;49.976;20.038;2023-07-16T01:19:32;97717.69;;;21.72;75.98
76746;BME280;65671;49.976;20.038;2023-07-16T01:27:49;97711.19;;;21.60;76.67
76746;BME280;65671;49.976;20.038;2023-07-16T01:30:16;97706.22;;;21.50;77.30
76746;BME280;65671;49.976;20.038;2023-07-16T01:32:46;97709.47;;;21.63;76.54
76746;BME280;65671;49.976;20.038;2023-07-16T01:35:12;97709.75;;;21.65;76.57
76746;BME280;65671;49.976;20.038;2023-07-16T01:37:40;97711.53;;;21.53;77.31
76746;BME280;65671;49.976;20.038;2023-07-16T01:40:07;97708.97;;;21.50;77.13
76746;BME280;65671;49.976;20.038;2023-07-16T01:42:34;97699.66;;;21.47;77.46
76746;BME280;65671;49.976;20.038;2023-07-16T01:44:59;97700.59;;;21.44;77.32
76746;BME280;65671;49.976;20.038;2023-07-16T01:49:53;97703.22;;;21.62;76.05
76746;BME280;65671;49.976;20.038;2023-07-16T01:52:18;97702.25;;;21.65;76.19
76746;BME280;65671;49.976;20.038;2023-07-16T01:54:44;97697.78;;;21.68;76.12
76746;BME280;65671;49.976;20.038;2023-07-16T01:57:09;97694.00;;;21.65;76.23
76746;BME280;65671;49.976;20.038;2023-07-16T01:59:35;97689.06;;;21.69;76.02
76746;BME280;65671;49.976;20.038;2023-07-16T02:02:00;97692.47;;;21.64;76.40
76746;BME280;65671;49.976;20.038;2023-07-16T02:04:26;97684.59;;;21.72;75.78
76746;BME280;65671;49.976;20.038;2023-07-16T02:06:51;97684.78;;;21.68;76.05
76746;BME280;65671;49.976;20.038;2023-07-16T02:09:17;97678.69;;;21.64;76.50
76746;BME280;65671;49.976;20.038;2023-07-16T02:11:42;97678.59;;;21.59;76.26
76746;BME280;65671;49.976;20.038;2023-07-16T02:14:08;97684.69;;;21.63;75.87
76746;BME280;65671;49.976;20.038;2023-07-16T02:16:34;97687.91;;;21.61;76.40
76746;BME280;65671;49.976;20.038;2023-07-16T02:18:59;97680.00;;;21.54;77.02
76746;BME280;65671;49.976;20.038;2023-07-16T02:21:24;97674.78;;;21.56;76.21
76746;BME280;65671;49.976;20.038;2023-07-16T02:23:50;97688.56;;;21.56;76.22
76746;BME280;65671;49.976;20.038;2023-07-16T02:26:15;97688.06;;;21.43;77.10
76746;BME280;65671;49.976;20.038;2023-07-16T02:28:41;97686.25;;;21.40;77.85
76746;BME280;65671;49.976;20.038;2023-07-16T02:31:06;97682.31;;;21.32;77.40
76746;BME280;65671;49.976;20.038;2023-07-16T02:33:32;97686.78;;;21.30;77.54
76746;BME280;65671;49.976;20.038;2023-07-16T02:35:57;97684.78;;;21.30;77.62
76746;BME280;65671;49.976;20.038;2023-07-16T02:38:22;97691.13;;;21.22;78.61
76746;BME280;65671;49.976;20.038;2023-07-16T02:40:48;97689.47;;;21.15;79.25
76746;BME280;65671;49.976;20.038;2023-07-16T02:43:14;97690.69;;;21.14;78.76
76746;BME280;65671;49.976;20.038;2023-07-16T02:45:40;97688.59;;;21.09;79.16
76746;BME280;65671;49.976;20.038;2023-07-16T02:48:06;97688.78;;;20.96;79.42
76746;BME280;65671;49.976;20.038;2023-07-16T02:50:38;97693.84;;;20.98;80.21
76746;BME280;65671;49.976;20.038;2023-07-16T02:53:04;97691.75;;;20.93;79.99
76746;BME280;65671;49.976;20.038;2023-07-16T02:55:30;97694.50;;;20.93;79.97
76746;BME280;65671;49.976;20.038;2023-07-16T02:57:56;97685.59;;;20.98;80.04
76746;BME280;65671;49.976;20.038;2023-07-16T03:00:22;97687.75;;;20.94;79.45
76746;BME280;65671;49.976;20.038;2023-07-16T03:02:47;97680.38;;;21.00;78.76
76746;BME280;65671;49.976;20.038;2023-07-16T03:05:17;97685.91;;;20.91;79.63
76746;BME280;65671;49.976;20.038;2023-07-16T03:07:43;97683.59;;;20.75;80.99
76746;BME280;65671;49.976;20.038;2023-07-16T03:10:09;97680.59;;;20.87;80.09
76746;BME280;65671;49.976;20.038;2023-07-16T03:12:34;97685.31;;;20.96;78.87
76746;BME280;65671;49.976;20.038;2023-07-16T03:15:00;97681.72;;;21.04;78.11
76746;BME280;65671;49.976;20.038;2023-07-16T03:17:25;97681.09;;;21.09;77.86
76746;BME280;65671;49.976;20.038;2023-07-16T03:19:51;97700.50;;;21.15;77.95
76746;BME280;65671;49.976;20.038;2023-07-16T03:22:16;97695.41;;;21.23;77.56
76746;BME280;65671;49.976;20.038;2023-07-16T03:24:42;97701.91;;;21.10;78.36
76746;BME280;65671;49.976;20.038;2023-07-16T03:27:07;97705.22;;;21.14;77.59
76746;BME280;65671;49.976;20.038;2023-07-16T03:29:33;97705.56;;;21.07;78.13
76746;BME280;65671;49.976;20.038;2023-07-16T03:31:59;97704.75;;;20.92;79.38
76746;BME280;65671;49.976;20.038;2023-07-16T03:34:24;97697.88;;;20.88;79.06
76746;BME280;65671;49.976;20.038;2023-07-16T03:36:50;97701.22;;;20.92;79.27
76746;BME280;65671;49.976;20.038;2023-07-16T03:39:15;97704.56;;;20.96;79.10
76746;BME280;65671;49.976;20.038;2023-07-16T03:41:41;97687.63;;;20.88;78.79
76746;BME280;65671;49.976;20.038;2023-07-16T03:44:06;97701.91;;;21.10;78.15
76746;BME280;65671;49.976;20.038;2023-07-16T03:46:32;97700.22;;;21.13;78.11
76746;BME280;65671;49.976;20.038;2023-07-16T03:48:57;97708.31;;;21.07;79.16
76746;BME280;65671;49.976;20.038;2023-07-16T03:51:23;97701.44;;;21.12;78.12
76746;BME280;65671;49.976;20.038;2023-07-16T03:53:48;97686.56;;;21.19;78.13
76746;BME280;65671;49.976;20.038;2023-07-16T03:56:13;97691.41;;;21.24;78.55
76746;BME280;65671;49.976;20.038;2023-07-16T03:58:39;97705.53;;;21.40;77.16
76746;BME280;65671;49.976;20.038;2023-07-16T04:01:04;97702.88;;;21.46;76.68
76746;BME280;65671;49.976;20.038;2023-07-16T04:03:30;97705.81;;;21.42;78.03
76746;BME280;65671;49.976;20.038;2023-07-16T04:06:05;97702.06;;;21.54;77.10
76746;BME280;65671;49.976;20.038;2023-07-16T04:08:31;97708.44;;;21.60;76.84
76746;BME280;65671;49.976;20.038;2023-07-16T04:10:57;97717.56;;;21.66;76.42
76746;BME280;65671;49.976;20.038;2023-07-16T04:13:22;97713.09;;;21.69;76.27
76746;BME280;65671;49.976;20.038;2023-07-16T04:15:48;97714.16;;;21.72;76.53
76746;BME280;65671;49.976;20.038;2023-07-16T04:18:14;97709.22;;;21.76;76.39
76746;BME280;65671;49.976;20.038;2023-07-16T04:20:39;97709.50;;;21.78;76.14
76746;BME280;65671;49.976;20.038;2023-07-16T04:23:05;97711.28;;;21.90;75.71
76746;BME280;65671;49.976;20.038;2023-07-16T04:25:30;97708.22;;;21.88;77.05
76746;BME280;65671;49.976;20.038;2023-07-16T04:27:56;97709.66;;;21.98;75.81
76746;BME280;65671;49.976;20.038;2023-07-16T04:30:22;97716.03;;;22.04;75.47
76746;BME280;65671;49.976;20.038;2023-07-16T04:32:47;97722.78;;;22.03;76.14
76746;BME280;65671;49.976;20.038;2023-07-16T04:35:12;97718.41;;;22.11;75.07
76746;BME280;65671;49.976;20.038;2023-07-16T04:37:38;97715.84;;;22.22;75.10
76746;BME280;65671;49.976;20.038;2023-07-16T04:40:04;97715.44;;;22.29;75.65
76746;BME280;65671;49.976;20.038;2023-07-16T04:42:30;97716.53;;;22.32;74.65
76746;BME280;65671;49.976;20.038;2023-07-16T04:44:55;97727.81;;;22.48;73.73
76746;BME280;65671;49.976;20.038;2023-07-16T04:47:21;97725.91;;;22.54;74.17
76746;BME280;65671;49.976;20.038;2023-07-16T04:49:46;97742.94;;;22.67;74.00
76746;BME280;65671;49.976;20.038;2023-07-16T04:52:12;97732.28;;;22.75;72.91
76746;BME280;65671;49.976;20.038;2023-07-16T04:54:38;97728.50;;;22.72;72.44
76746;BME280;65671;49.976;20.038;2023-07-16T04:57:06;97753.56;;;22.89;73.16
76746;BME280;65671;49.976;20.038;2023-07-16T04:59:33;97729.34;;;22.78;73.01
76746;BME280;65671;49.976;20.038;2023-07-16T05:01:58;97749.94;;;22.98;73.04
76746;BME280;65671;49.976;20.038;2023-07-16T05:04:24;97766.81;;;23.00;73.65
76746;BME280;65671;49.976;20.038;2023-07-16T05:06:50;97759.03;;;23.18;71.38
76746;BME280;65671;49.976;20.038;2023-07-16T05:09:15;97764.16;;;23.25;72.83
76746;BME280;65671;49.976;20.038;2023-07-16T05:11:41;97763.00;;;23.32;72.12
76746;BME280;65671;49.976;20.038;2023-07-16T05:14:06;97767.56;;;23.35;71.08
76746;BME280;65671;49.976;20.038;2023-07-16T05:16:32;97770.88;;;23.39;72.72
76746;BME280;65671;49.976;20.038;2023-07-16T05:18:57;97773.78;;;23.50;71.75
76746;BME280;65671;49.976;20.038;2023-07-16T05:21:23;97781.81;;;23.48;72.45
76746;BME280;65671;49.976;20.038;2023-07-16T05:23:48;97773.44;;;23.43;73.38
76746;BME280;65671;49.976;20.038;2023-07-16T05:26:13;97770.81;;;23.54;71.43
76746;BME280;65671;49.976;20.038;2023-07-16T05:28:39;97774.72;;;23.62;72.04
76746;BME280;65671;49.976;20.038;2023-07-16T05:31:04;97779.34;;;23.70;71.69
76746;BME280;65671;49.976;20.038;2023-07-16T05:33:30;97779.94;;;23.80;71.90
76746;BME280;65671;49.976;20.038;2023-07-16T05:35:56;97783.81;;;23.88;71.74
76746;BME280;65671;49.976;20.038;2023-07-16T05:38:21;97771.63;;;24.00;72.51
76746;BME280;65671;49.976;20.038;2023-07-16T05:40:47;97771.78;;;24.11;71.92
76746;BME280;65671;49.976;20.038;2023-07-16T05:43:12;97773.13;;;24.21;70.00
76746;BME280;65671;49.976;20.038;2023-07-16T05:45:39;97773.72;;;24.31;71.10
76746;BME280;65671;49.976;20.038;2023-07-16T05:48:05;97785.34;;;24.35;71.59
76746;BME280;65671;49.976;20.038;2023-07-16T05:50:30;97778.34;;;24.39;70.95
76746;BME280;65671;49.976;20.038;2023-07-16T05:52:55;97780.72;;;24.52;69.47
76746;BME280;65671;49.976;20.038;2023-07-16T05:55:21;97777.06;;;24.66;69.67
76746;BME280;65671;49.976;20.038;2023-07-16T05:57:46;97796.72;;;24.68;68.69
76746;BME280;65671;49.976;20.038;2023-07-16T06:00:12;97793.88;;;24.83;69.52
76746;BME280;65671;49.976;20.038;2023-07-16T06:02:39;97790.66;;;24.95;69.55
76746;BME280;65671;49.976;20.038;2023-07-16T06:05:05;97781.69;;;25.06;69.25
76746;BME280;65671;49.976;20.038;2023-07-16T06:07:30;97786.00;;;25.13;67.23
76746;BME280;65671;49.976;20.038;2023-07-16T06:09:57;97785.00;;;25.16;67.91
76746;BME280;65671;49.976;20.038;2023-07-16T06:12:22;97788.34;;;25.25;66.29
76746;BME280;65671;49.976;20.038;2023-07-16T06:14:48;97793.00;;;25.45;66.87
76746;BME280;65671;49.976;20.038;2023-07-16T06:17:13;97790.13;;;25.65;66.91
76746;BME280;65671;49.976;20.038;2023-07-16T06:19:39;97789.59;;;25.67;65.91
76746;BME280;65671;49.976;20.038;2023-07-16T06:22:04;97784.38;;;25.80;65.54
76746;BME280;65671;49.976;20.038;2023-07-16T06:24:30;97788.41;;;25.79;65.97
76746;BME280;65671;49.976;20.038;2023-07-16T06:26:55;97786.19;;;25.94;64.43
76746;BME280;65671;49.976;20.038;2023-07-16T06:29:20;97788.19;;;25.93;63.34
76746;BME280;65671;49.976;20.038;2023-07-16T06:31:57;97795.34;;;26.17;63.58
76746;BME280;65671;49.976;20.038;2023-07-16T06:34:23;97795.38;;;26.28;63.60
76746;BME280;65671;49.976;20.038;2023-07-16T06:36:48;97794.09;;;26.18;61.20
76746;BME280;65671;49.976;20.038;2023-07-16T06:39:14;97796.13;;;26.34;60.19
76746;BME280;65671;49.976;20.038;2023-07-16T06:41:39;97796.91;;;26.34;58.88
76746;BME280;65671;49.976;20.038;2023-07-16T06:44:05;97799.97;;;26.36;63.38
76746;BME280;65671;49.976;20.038;2023-07-16T06:46:30;97806.78;;;26.52;61.35
76746;BME280;65671;49.976;20.038;2023-07-16T06:48:55;97807.00;;;26.43;59.94
76746;BME280;65671;49.976;20.038;2023-07-16T06:51:21;97797.44;;;26.55;58.86
76746;BME280;65671;49.976;20.038;2023-07-16T06:53:46;97806.78;;;26.63;59.54
76746;BME280;65671;49.976;20.038;2023-07-16T06:56:12;97812.84;;;26.78;62.23
76746;BME280;65671;49.976;20.038;2023-07-16T06:58:37;97811.38;;;26.83;62.88
76746;BME280;65671;49.976;20.038;2023-07-16T07:01:03;97819.19;;;26.90;59.90
76746;BME280;65671;49.976;20.038;2023-07-16T07:03:28;97817.44;;;26.92;60.56
76746;BME280;65671;49.976;20.038;2023-07-16T07:05:54;97824.78;;;26.95;56.99
76746;BME280;65671;49.976;20.038;2023-07-16T07:08:19;97821.00;;;26.98;60.34
76746;BME280;65671;49.976;20.038;2023-07-16T07:10:48;97822.97;;;26.70;61.93
76746;BME280;65671;49.976;20.038;2023-07-16T07:13:13;97828.28;;;26.90;58.71
76746;BME280;65671;49.976;20.038;2023-07-16T07:15:39;97817.19;;;27.07;60.44
76746;BME280;65671;49.976;20.038;2023-07-16T07:18:04;97814.41;;;27.12;59.72
76746;BME280;65671;49.976;20.038;2023-07-16T07:20:30;97825.50;;;27.18;58.55
76746;BME280;65671;49.976;20.038;2023-07-16T07:22:55;97829.28;;;27.26;60.10
76746;BME280;65671;49.976;20.038;2023-07-16T07:25:21;97821.44;;;27.36;58.68
76746;BME280;65671;49.976;20.038;2023-07-16T07:27:46;97824.72;;;27.40;56.49
76746;BME280;65671;49.976;20.038;2023-07-16T07:30:12;97826.50;;;27.43;59.83
76746;BME280;65671;49.976;20.038;2023-07-16T07:32:37;97832.81;;;27.49;58.64
76746;BME280;65671;49.976;20.038;2023-07-16T07:35:04;97837.38;;;27.46;57.90
76746;BME280;65671;49.976;20.038;2023-07-16T07:37:30;97831.56;;;27.50;57.57
76746;BME280;65671;49.976;20.038;2023-07-16T07:39:55;97832.50;;;27.63;56.73
76746;BME280;65671;49.976;20.038;2023-07-16T07:42:23;97842.69;;;27.50;55.55
76746;BME280;65671;49.976;20.038;2023-07-16T07:44:50;97846.97;;;27.51;57.08
76746;BME280;65671;49.976;20.038;2023-07-16T07:47:15;97854.22;;;27.82;56.54
76746;BME280;65671;49.976;20.038;2023-07-16T07:49:42;97859.03;;;27.76;57.89
76746;BME280;65671;49.976;20.038;2023-07-16T07:52:07;97863.88;;;27.64;56.24
76746;BME280;65671;49.976;20.038;2023-07-16T07:54:33;97870.19;;;27.70;57.13
76746;BME280;65671;49.976;20.038;2023-07-16T07:57:01;97876.75;;;27.78;57.45
76746;BME280;65671;49.976;20.038;2023-07-16T07:59:28;97875.97;;;27.83;55.04
76746;BME280;65671;49.976;20.038;2023-07-16T08:01:54;97890.44;;;27.70;51.74
76746;BME280;65671;49.976;20.038;2023-07-16T08:04:19;97882.56;;;27.80;54.87
76746;BME280;65671;49.976;20.038;2023-07-16T08:06:45;97890.09;;;27.96;55.61
76746;BME280;65671;49.976;20.038;2023-07-16T08:09:10;97891.09;;;28.10;55.17
76746;BME280;65671;49.976;20.038;2023-07-16T08:11:36;97901.66;;;28.22;53.96
76746;BME280;65671;49.976;20.038;2023-07-16T08:14:02;97904.44;;;28.22;52.70
76746;BME280;65671;49.976;20.038;2023-07-16T08:16:27;97903.25;;;28.12;50.96
76746;BME280;65671;49.976;20.038;2023-07-16T08:18:52;97905.22;;;28.23;52.01
76746;BME280;65671;49.976;20.038;2023-07-16T08:21:18;97905.69;;;28.33;51.19
76746;BME280;65671;49.976;20.038;2023-07-16T08:23:49;97906.25;;;28.20;51.28
76746;BME280;65671;49.976;20.038;2023-07-16T08:26:15;97915.13;;;28.18;51.30
76746;BME280;65671;49.976;20.038;2023-07-16T08:28:41;97918.09;;;28.32;49.79
76746;BME280;65671;49.976;20.038;2023-07-16T08:31:06;97913.22;;;28.43;50.88
76746;BME280;65671;49.976;20.038;2023-07-16T08:33:32;97898.41;;;28.18;51.63
76746;BME280;65671;49.976;20.038;2023-07-16T08:35:57;97915.00;;;28.41;53.09
76746;BME280;65671;49.976;20.038;2023-07-16T08:38:22;97914.03;;;28.85;52.73
76746;BME280;65671;49.976;20.038;2023-07-16T08:40:48;97919.72;;;28.68;52.21
76746;BME280;65671;49.976;20.038;2023-07-16T08:43:16;97922.41;;;28.33;53.23
76746;BME280;65671;49.976;20.038;2023-07-16T08:45:42;97912.28;;;28.82;55.92
76746;BME280;65671;49.976;20.038;2023-07-16T08:48:10;97922.63;;;28.92;54.11
76746;BME280;65671;49.976;20.038;2023-07-16T08:50:36;97919.75;;;28.57;52.91
76746;BME280;65671;49.976;20.038;2023-07-16T08:53:04;97922.88;;;28.89;56.92
76746;BME280;65671;49.976;20.038;2023-07-16T08:55:30;97923.47;;;29.11;53.92
76746;BME280;65671;49.976;20.038;2023-07-16T08:57:57;97908.50;;;28.79;51.96
76746;BME280;65671;49.976;20.038;2023-07-16T09:00:24;97916.97;;;29.03;54.12
76746;BME280;65671;49.976;20.038;2023-07-16T09:02:55;97909.78;;;28.78;53.04
76746;BME280;65671;49.976;20.038;2023-07-16T09:05:21;97917.94;;;29.06;55.72
76746;BME280;65671;49.976;20.038;2023-07-16T09:07:47;97921.25;;;29.04;51.83
76746;BME280;65671;49.976;20.038;2023-07-16T09:10:12;97913.72;;;28.94;51.62
76746;BME280;65671;49.976;20.038;2023-07-16T09:12:45;97908.75;;;28.81;51.63
76746;BME280;65671;49.976;20.038;2023-07-16T09:15:13;97912.19;;;28.98;50.74
76746;BME280;65671;49.976;20.038;2023-07-16T09:17:38;97908.97;;;29.24;53.38
76746;BME280;65671;49.976;20.038;2023-07-16T09:20:04;97915.63;;;29.45;47.73
76746;BME280;65671;49.976;20.038;2023-07-16T09:22:34;97903.53;;;29.37;46.94
76746;BME280;65671;49.976;20.038;2023-07-16T09:25:00;97909.28;;;29.45;48.86
76746;BME280;65671;49.976;20.038;2023-07-16T09:27:30;97913.56;;;29.51;49.44
76746;BME280;65671;49.976;20.038;2023-07-16T09:29:56;97910.72;;;29.57;47.75
76746;BME280;65671;49.976;20.038;2023-07-16T09:32:22;97911.97;;;29.56;51.27
76746;BME280;65671;49.976;20.038;2023-07-16T09:34:50;97917.56;;;29.56;49.66
76746;BME280;65671;49.976;20.038;2023-07-16T09:37:18;97898.44;;;29.06;47.78
76746;BME280;65671;49.976;20.038;2023-07-16T09:39:46;97910.38;;;29.66;50.38
76746;BME280;65671;49.976;20.038;2023-07-16T09:42:12;97919.78;;;29.63;50.01
76746;BME280;65671;49.976;20.038;2023-07-16T09:44:39;97910.81;;;29.46;46.75
76746;BME280;65671;49.976;20.038;2023-07-16T09:47:07;97909.47;;;29.82;49.14
76746;BME280;65671;49.976;20.038;2023-07-16T09:49:32;97915.88;;;29.47;47.11
76746;BME280;65671;49.976;20.038;2023-07-16T09:51:58;97913.59;;;29.46;47.89
76746;BME280;65671;49.976;20.038;2023-07-16T09:54:30;97913.88;;;29.72;49.47
76746;BME280;65671;49.976;20.038;2023-07-16T09:56:58;97914.63;;;29.72;48.75
76746;BME280;65671;49.976;20.038;2023-07-16T09:59:27;97917.47;;;30.15;52.89
76746;BME280;65671;49.976;20.038;2023-07-16T10:01:55;97910.00;;;30.23;51.18
76746;BME280;65671;49.976;20.038;2023-07-16T10:04:22;97916.41;;;30.42;50.11
76746;BME280;65671;49.976;20.038;2023-07-16T10:06:58;97919.81;;;30.11;46.05
76746;BME280;65671;49.976;20.038;2023-07-16T10:09:50;97921.06;;;30.34;51.82
76746;BME280;65671;49.976;20.038;2023-07-16T10:12:17;97916.63;;;30.02;48.30
76746;BME280;65671;49.976;20.038;2023-07-16T10:14:44;97919.22;;;29.70;48.73
76746;BME280;65671;49.976;20.038;2023-07-16T10:19:50;97915.28;;;29.84;50.43
76746;BME280;65671;49.976;20.038;2023-07-16T10:22:17;97910.34;;;29.96;47.19
76746;BME280;65671;49.976;20.038;2023-07-16T10:24:43;97908.50;;;30.47;52.72
76746;BME280;65671;49.976;20.038;2023-07-16T10:27:09;97905.75;;;29.98;46.55
76746;BME280;65671;49.976;20.038;2023-07-16T10:29:38;97904.88;;;30.52;47.27
76746;BME280;65671;49.976;20.038;2023-07-16T10:32:05;97905.25;;;30.61;51.28
76746;BME280;65671;49.976;20.038;2023-07-16T10:34:35;97902.91;;;30.47;46.00
76746;BME280;65671;49.976;20.038;2023-07-16T10:37:00;97902.44;;;30.42;45.10
76746;BME280;65671;49.976;20.038;2023-07-16T10:39:26;97900.44;;;30.37;47.46
76746;BME280;65671;49.976;20.038;2023-07-16T10:41:51;97905.00;;;30.78;48.35
76746;BME280;65671;49.976;20.038;2023-07-16T10:44:17;97903.63;;;30.47;45.25
76746;BME280;65671;49.976;20.038;2023-07-16T10:46:42;97896.25;;;30.50;49.67
76746;BME280;65671;49.976;20.038;2023-07-16T10:49:08;97904.41;;;30.85;48.77
76746;BME280;65671;49.976;20.038;2023-07-16T10:51:33;97895.47;;;31.05;46.25
76746;BME280;65671;49.976;20.038;2023-07-16T10:53:59;97898.13;;;30.98;43.42
76746;BME280;65671;49.976;20.038;2023-07-16T10:56:25;97899.41;;;30.97;42.95
76746;BME280;65671;49.976;20.038;2023-07-16T10:58:51;97896.53;;;30.83;45.52
76746;BME280;65671;49.976;20.038;2023-07-16T11:01:16;97896.72;;;31.36;49.08
76746;BME280;65671;49.976;20.038;2023-07-16T11:03:42;97893.47;;;31.64;52.96
76746;BME280;65671;49.976;20.038;2023-07-16T11:06:09;97889.16;;;31.63;49.40
76746;BME280;65671;49.976;20.038;2023-07-16T11:08:34;97889.16;;;31.63;47.22
76746;BME280;65671;49.976;20.038;2023-07-16T11:11:00;97886.56;;;31.52;47.27
76746;BME280;65671;49.976;20.038;2023-07-16T11:13:31;97888.75;;;31.72;46.96
76746;BME280;65671;49.976;20.038;2023-07-16T11:15:56;97891.13;;;31.94;46.85
76746;BME280;65671;49.976;20.038;2023-07-16T11:18:23;97886.50;;;31.70;44.71
76746;BME280;65671;49.976;20.038;2023-07-16T11:20:53;97885.78;;;31.38;44.48
76746;BME280;65671;49.976;20.038;2023-07-16T11:23:18;97880.13;;;31.83;46.45
76746;BME280;65671;49.976;20.038;2023-07-16T11:25:51;97881.00;;;31.33;43.16
76746;BME280;65671;49.976;20.038;2023-07-16T11:28:17;97874.84;;;31.21;42.71
76746;BME280;65671;49.976;20.038;2023-07-16T11:30:42;97882.38;;;31.71;43.70
76746;BME280;65671;49.976;20.038;2023-07-16T11:33:11;97881.00;;;31.91;43.17
76746;BME280;65671;49.976;20.038;2023-07-16T11:35:37;97868.53;;;32.05;49.48
76746;BME280;65671;49.976;20.038;2023-07-16T11:38:05;97880.81;;;32.15;43.79
76746;BME280;65671;49.976;20.038;2023-07-16T11:40:34;97880.44;;;31.21;37.03
76746;BME280;65671;49.976;20.038;2023-07-16T11:43:10;97873.56;;;30.90;39.75
76746;BME280;65671;49.976;20.038;2023-07-16T11:45:36;97876.59;;;31.56;40.64
76746;BME280;65671;49.976;20.038;2023-07-16T11:48:03;97873.69;;;31.88;45.04
76746;BME280;65671;49.976;20.038;2023-07-16T11:50:29;97871.94;;;32.24;45.39
76746;BME280;65671;49.976;20.038;2023-07-16T11:52:58;97870.75;;;31.80;39.98
76746;BME280;65671;49.976;20.038;2023-07-16T11:55:24;97868.72;;;31.55;40.09
76746;BME280;65671;49.976;20.038;2023-07-16T11:57:50;97874.97;;;31.74;40.18
76746;BME280;65671;49.976;20.038;2023-07-16T12:00:15;97866.56;;;31.61;40.63
76746;BME280;65671;49.976;20.038;2023-07-16T12:02:42;97860.91;;;31.34;37.79
76746;BME280;65671;49.976;20.038;2023-07-16T12:05:08;97864.75;;;31.76;38.52
76746;BME280;65671;49.976;20.038;2023-07-16T12:07:35;97868.94;;;31.70;37.07
76746;BME280;65671;49.976;20.038;2023-07-16T12:10:03;97868.75;;;32.07;44.96
76746;BME280;65671;49.976;20.038;2023-07-16T12:12:29;97860.59;;;32.43;41.86
76746;BME280;65671;49.976;20.038;2023-07-16T12:14:55;97862.91;;;31.92;35.50
76746;BME280;65671;49.976;20.038;2023-07-16T12:17:20;97857.94;;;31.72;36.18
76746;BME280;65671;49.976;20.038;2023-07-16T12:19:46;97860.41;;;31.49;37.59
76746;BME280;65671;49.976;20.038;2023-07-16T12:22:11;97859.25;;;31.58;37.77
76746;BME280;65671;49.976;20.038;2023-07-16T12:24:37;97860.13;;;32.05;38.65
76746;BME280;65671;49.976;20.038;2023-07-16T12:27:03;97858.41;;;32.02;37.42
76746;BME280;65671;49.976;20.038;2023-07-16T12:29:28;97859.91;;;31.77;37.73
76746;BME280;65671;49.976;20.038;2023-07-16T12:31:54;97852.59;;;31.29;37.13
76746;BME280;65671;49.976;20.038;2023-07-16T12:34:19;97850.75;;;32.02;37.31
76746;BME280;65671;49.976;20.038;2023-07-16T12:36:45;97851.94;;;32.07;36.08
76746;BME280;65671;49.976;20.038;2023-07-16T12:39:10;97854.28;;;32.29;37.76
76746;BME280;65671;49.976;20.038;2023-07-16T12:41:36;97841.75;;;32.30;39.87
76746;BME280;65671;49.976;20.038;2023-07-16T12:44:01;97857.41;;;31.99;38.48
76746;BME280;65671;49.976;20.038;2023-07-16T12:46:27;97850.22;;;31.65;36.98
76746;BME280;65671;49.976;20.038;2023-07-16T12:48:52;97854.63;;;31.73;41.89
76746;BME280;65671;49.976;20.038;2023-07-16T12:51:17;97845.88;;;31.50;40.00
76746;BME280;65671;49.976;20.038;2023-07-16T12:53:43;97852.13;;;31.57;35.37
76746;BME280;65671;49.976;20.038;2023-07-16T12:56:09;97845.25;;;31.97;39.87